createdAt,value
2019-04-05T00:02:17.753Z,4.20
2019-04-05T00:04:45.530Z,4.20
2019-04-05T00:07:13.286Z,4.20
2019-04-05T00:09:41.062Z,4.20
2019-04-05T00:12:08.785Z,4.10
2019-04-05T00:14:36.561Z,4.10
2019-04-05T00:17:04.273Z,4.10
2019-04-05T00:19:32.056Z,4.00
2019-04-05T00:21:59.772Z,4.00
2019-04-05T00:24:27.545Z,4.00
2019-04-05T00:26:55.249Z,4.00
2019-04-05T00:29:23.054Z,4.00
2019-04-05T00:31:50.776Z,4.00
2019-04-05T00:34:18.553Z,4.00
2019-04-05T00:36:46.277Z,4.00
2019-04-05T00:39:14.090Z,4.00
2019-04-05T00:41:41.769Z,3.90
2019-04-05T00:44:09.533Z,3.90
2019-04-05T00:46:37.257Z,3.90
2019-04-05T00:49:05.047Z,3.90
2019-04-05T00:51:32.761Z,3.90
2019-04-05T00:54:00.538Z,4.00
2019-04-05T00:56:28.282Z,4.00
2019-04-05T00:58:56.004Z,4.00
2019-04-05T01:01:23.780Z,4.00
2019-04-05T01:03:51.570Z,4.00
2019-04-05T01:06:19.431Z,4.00
2019-04-05T01:08:47.154Z,3.90
2019-04-05T01:11:14.931Z,3.90
2019-04-05T01:13:42.662Z,3.90
2019-04-05T01:16:10.460Z,3.90
2019-04-05T01:18:38.181Z,3.90
2019-04-05T01:21:05.957Z,3.90
2019-04-05T01:23:33.677Z,4.00
2019-04-05T01:26:01.437Z,3.90
2019-04-05T01:28:29.153Z,4.00
2019-04-05T01:30:56.911Z,4.00
2019-04-05T01:33:24.623Z,4.00
2019-04-05T01:35:52.420Z,4.10
2019-04-05T01:38:20.132Z,4.10
2019-04-05T01:40:47.901Z,4.00
2019-04-05T01:43:15.631Z,4.00
2019-04-05T01:45:53.146Z,4.00
2019-04-05T01:48:13.081Z,4.00
2019-04-05T01:50:40.813Z,4.00
2019-04-05T01:53:08.626Z,4.00
2019-04-05T01:55:36.336Z,4.00
2019-04-05T01:58:04.101Z,4.00
2019-04-05T02:00:31.839Z,4.00
2019-04-05T02:02:59.594Z,4.10
2019-04-05T02:05:27.591Z,4.20
2019-04-05T02:07:55.375Z,4.30
2019-04-05T02:10:23.095Z,4.30
2019-04-05T02:12:50.953Z,4.40
2019-04-05T02:15:24.264Z,4.40
2019-04-05T02:17:52.057Z,4.50
2019-04-05T02:20:19.770Z,4.60
2019-04-05T02:22:47.530Z,4.60
2019-04-05T02:25:15.249Z,4.70
2019-04-05T02:27:43.019Z,4.70
2019-04-05T02:30:10.777Z,4.80
2019-04-05T02:32:38.565Z,4.90
2019-04-05T02:35:06.313Z,4.90
2019-04-05T02:37:34.223Z,5.00
2019-04-05T02:40:01.960Z,5.10
2019-04-05T02:42:29.731Z,5.10
2019-04-05T02:44:57.463Z,5.10
2019-04-05T02:47:25.222Z,5.10
2019-04-05T02:49:52.935Z,5.20
2019-04-05T02:52:20.701Z,5.20
2019-04-05T02:54:48.410Z,5.20
2019-04-05T02:57:16.186Z,5.20
2019-04-05T02:59:43.888Z,5.10
2019-04-05T03:02:11.629Z,5.10
2019-04-05T03:04:39.404Z,5.00
2019-04-05T03:07:07.239Z,5.00
2019-04-05T03:09:35.101Z,4.90
2019-04-05T03:12:02.823Z,4.90
2019-04-05T03:14:30.595Z,4.90
2019-04-05T03:16:58.298Z,4.90
2019-04-05T03:19:28.336Z,4.90
2019-04-05T03:22:03.019Z,4.90
2019-04-05T03:24:30.786Z,4.80
2019-04-05T03:27:01.724Z,4.80
2019-04-05T03:29:29.496Z,4.80
2019-04-05T03:31:57.234Z,4.70
2019-04-05T03:34:25.291Z,4.70
2019-04-05T03:36:52.995Z,4.60
2019-04-05T03:39:21.012Z,4.60
2019-04-05T03:41:48.716Z,4.50
2019-04-05T03:44:16.476Z,4.50
2019-04-05T03:46:56.425Z,4.50
2019-04-05T03:49:13.853Z,4.50
2019-04-05T03:51:41.557Z,4.60
2019-04-05T03:54:09.322Z,4.60
2019-04-05T03:56:38.271Z,4.70
2019-04-05T03:59:06.449Z,4.70
2019-04-05T04:01:34.151Z,4.70
2019-04-05T04:04:02.245Z,4.70
2019-04-05T04:06:30.199Z,4.70
2019-04-05T04:08:57.982Z,4.70
2019-04-05T04:11:25.698Z,4.80
2019-04-05T04:13:53.519Z,4.80
2019-04-05T04:16:21.853Z,4.90
2019-04-05T04:18:49.607Z,4.90
2019-04-05T04:21:35.666Z,5.00
2019-04-05T04:24:03.452Z,5.00
2019-04-05T04:26:31.518Z,5.00
2019-04-05T04:28:59.223Z,5.00
2019-04-05T04:31:27.112Z,5.00
2019-04-05T04:33:54.875Z,4.90
2019-04-05T04:36:23.066Z,4.90
2019-04-05T04:38:50.789Z,4.90
2019-04-05T04:41:18.566Z,5.00
2019-04-05T04:43:46.292Z,5.00
2019-04-05T04:46:14.062Z,5.10
2019-04-05T04:48:42.290Z,5.10
2019-04-05T04:51:10.085Z,5.10
2019-04-05T04:53:37.815Z,5.20
2019-04-05T04:56:05.569Z,5.10
2019-04-05T04:58:33.296Z,5.10
2019-04-05T05:01:01.089Z,5.10
2019-04-05T05:03:28.804Z,5.10
2019-04-05T05:05:56.598Z,5.10
2019-04-05T05:08:24.478Z,5.10
2019-04-05T05:10:52.237Z,5.10
2019-04-05T05:13:19.946Z,5.10
2019-04-05T05:15:47.759Z,5.00
2019-04-05T05:18:15.493Z,4.90
2019-04-05T05:20:43.448Z,4.80
2019-04-05T05:23:11.201Z,4.80
2019-04-05T05:25:38.969Z,4.80
2019-04-05T05:28:06.717Z,4.70
2019-04-05T05:30:34.473Z,4.70
2019-04-05T05:33:02.199Z,4.70
2019-04-05T05:35:29.933Z,4.80
2019-04-05T05:37:57.690Z,4.90
2019-04-05T05:40:34.680Z,5.00
2019-04-05T05:42:55.015Z,5.10
2019-04-05T05:45:22.727Z,5.30
2019-04-05T05:47:52.230Z,5.40
2019-04-05T05:50:19.991Z,5.50
2019-04-05T05:52:47.825Z,5.80
2019-04-05T05:55:15.557Z,6.60
2019-04-05T05:57:43.302Z,6.80
2019-04-05T06:00:11.317Z,6.80
2019-04-05T06:02:39.541Z,6.80
2019-04-05T06:05:10.227Z,7.10
2019-04-05T06:07:38.184Z,7.30
2019-04-05T06:10:06.265Z,7.20
2019-04-05T06:12:34.096Z,6.90
2019-04-05T06:15:01.842Z,6.60
2019-04-05T06:17:29.612Z,7.10
2019-04-05T06:19:57.341Z,8.00
2019-04-05T06:22:25.141Z,8.90
2019-04-05T06:24:52.861Z,10.60
2019-04-05T06:27:20.626Z,12.40
2019-04-05T06:29:48.449Z,13.90
2019-04-05T06:32:16.210Z,15.00
2019-04-05T06:34:43.966Z,16.20
2019-04-05T06:37:11.752Z,17.00
2019-04-05T06:39:39.512Z,17.40
2019-04-05T06:42:07.283Z,17.70
2019-04-05T06:44:35.035Z,17.30
2019-04-05T06:47:02.776Z,16.90
2019-04-05T06:49:31.236Z,17.00
2019-04-05T06:51:58.965Z,16.10
2019-04-05T06:54:26.725Z,14.60
2019-04-05T06:56:54.494Z,13.20
2019-04-05T06:59:22.257Z,12.10
2019-04-05T07:01:49.988Z,11.80
2019-04-05T07:04:17.747Z,12.40
2019-04-05T07:07:04.929Z,13.00
2019-04-05T07:09:34.126Z,12.90
2019-04-05T07:12:02.065Z,12.70
2019-04-05T07:14:29.857Z,12.20
2019-04-05T07:16:57.595Z,11.80
2019-04-05T07:19:25.371Z,11.20
2019-04-05T07:21:53.114Z,11.10
2019-04-05T07:24:20.901Z,11.40
2019-04-05T07:26:48.632Z,11.70
2019-04-05T07:29:16.402Z,11.60
2019-04-05T07:31:44.242Z,11.00
2019-04-05T07:34:11.965Z,10.80
2019-04-05T07:36:39.702Z,10.70
2019-04-05T07:39:07.492Z,10.80
2019-04-05T07:41:35.215Z,10.90
2019-04-05T07:44:02.975Z,10.70
2019-04-05T07:46:30.701Z,10.80
2019-04-05T07:48:58.452Z,10.70
2019-04-05T07:51:26.191Z,10.70
2019-04-05T07:53:53.921Z,10.80
2019-04-05T07:56:21.733Z,11.00
2019-04-05T07:58:49.499Z,11.00
2019-04-05T08:01:17.265Z,11.10
2019-04-05T08:03:45.026Z,11.10
2019-04-05T08:06:12.783Z,11.10
2019-04-05T08:08:57.081Z,11.40
2019-04-05T08:11:24.833Z,11.50
2019-04-05T08:13:52.605Z,11.50
2019-04-05T08:16:20.341Z,11.50
2019-04-05T08:18:57.737Z,11.50
2019-04-05T08:21:17.647Z,11.60
2019-04-05T08:23:45.418Z,11.80
2019-04-05T08:26:14.300Z,11.80
2019-04-05T08:28:42.001Z,12.00
2019-04-05T08:31:10.831Z,11.90
2019-04-05T08:33:39.085Z,11.80
2019-04-05T08:36:06.846Z,11.80
2019-04-05T08:38:34.583Z,11.80
2019-04-05T08:41:02.370Z,11.90
2019-04-05T08:43:30.102Z,12.00
2019-04-05T08:45:57.861Z,11.90
2019-04-05T08:48:25.633Z,12.00
2019-04-05T08:50:53.562Z,12.10
2019-04-05T08:53:21.292Z,12.20
2019-04-05T08:55:49.030Z,12.00
2019-04-05T08:58:16.759Z,11.90
2019-04-05T09:00:44.533Z,11.80
2019-04-05T09:03:12.280Z,11.80
2019-04-05T09:05:40.033Z,12.00
2019-04-05T09:08:07.805Z,12.20
2019-04-05T09:10:35.608Z,12.00
2019-04-05T09:13:03.328Z,11.80
2019-04-05T09:15:31.069Z,11.70
2019-04-05T09:17:58.896Z,11.80
2019-04-05T09:20:26.633Z,12.00
2019-04-05T09:22:54.414Z,12.10
2019-04-05T09:25:22.183Z,12.20
2019-04-05T09:27:49.927Z,12.40
2019-04-05T09:30:17.665Z,12.70
2019-04-05T09:32:45.408Z,13.20
2019-04-05T09:35:13.154Z,13.50
2019-04-05T09:37:40.891Z,13.70
2019-04-05T09:40:08.678Z,14.00
2019-04-05T09:42:36.417Z,14.10
2019-04-05T09:45:04.906Z,14.10
2019-04-05T09:47:32.637Z,14.10
2019-04-05T09:50:00.361Z,14.20
2019-04-05T09:52:28.149Z,14.10
2019-04-05T09:54:55.939Z,14.00
2019-04-05T09:57:23.677Z,13.90
2019-04-05T09:59:51.413Z,13.60
2019-04-05T10:02:19.182Z,13.30
2019-04-05T10:04:46.940Z,13.30
2019-04-05T10:07:14.720Z,13.30
2019-04-05T10:09:42.490Z,13.30
2019-04-05T10:12:10.333Z,13.30
2019-04-05T10:14:38.119Z,13.30
2019-04-05T10:17:07.161Z,13.20
2019-04-05T10:19:34.863Z,13.10
2019-04-05T10:22:02.928Z,13.10
2019-04-05T10:24:33.007Z,13.20
2019-04-05T10:27:01.635Z,13.30
2019-04-05T10:29:29.351Z,13.30
2019-04-05T10:31:57.317Z,13.40
2019-04-05T10:34:25.049Z,13.50
2019-04-05T10:36:52.799Z,13.60
2019-04-05T10:39:20.541Z,13.70
2019-04-05T10:41:48.299Z,13.70
2019-04-05T10:44:16.149Z,13.80
2019-04-05T10:46:43.893Z,13.80
2019-04-05T10:49:11.725Z,13.90
2019-04-05T10:51:39.459Z,13.90
2019-04-05T10:54:09.408Z,13.90
2019-04-05T10:56:36.754Z,14.00
2019-04-05T10:59:04.486Z,14.20
2019-04-05T11:01:32.199Z,14.30
2019-04-05T11:03:59.945Z,14.50
2019-04-05T11:06:27.689Z,14.80
2019-04-05T11:08:55.450Z,15.00
2019-04-05T11:11:23.268Z,15.10
2019-04-05T11:13:51.005Z,15.20
2019-04-05T11:16:18.729Z,15.20
2019-04-05T11:18:46.497Z,15.20
2019-04-05T11:21:14.205Z,15.20
2019-04-05T11:23:41.941Z,15.20
2019-04-05T11:26:09.685Z,15.30
2019-04-05T11:28:37.415Z,15.30
2019-04-05T11:31:05.145Z,15.40
2019-04-05T11:33:32.875Z,15.40
2019-04-05T11:36:00.625Z,15.50
2019-04-05T11:38:28.437Z,15.50
2019-04-05T11:40:56.169Z,15.50
2019-04-05T11:43:26.150Z,15.50
2019-04-05T11:45:53.550Z,15.60
2019-04-05T11:48:21.318Z,15.60
2019-04-05T11:50:49.262Z,15.70
2019-04-05T11:53:18.383Z,15.70
2019-04-05T11:55:46.801Z,15.80
2019-04-05T11:58:14.725Z,15.90
2019-04-05T12:00:58.573Z,16.00
2019-04-05T12:03:26.716Z,16.00
2019-04-05T12:05:54.502Z,16.10
2019-04-05T12:08:22.313Z,16.20
2019-04-05T12:10:50.067Z,16.10
2019-04-05T12:13:17.797Z,16.20
2019-04-05T12:15:45.573Z,16.20
2019-04-05T12:18:16.061Z,16.20
2019-04-05T12:20:52.073Z,16.20
2019-04-05T12:23:12.487Z,16.20
2019-04-05T12:25:40.237Z,16.20
2019-04-05T12:28:10.551Z,16.40
2019-04-05T12:30:38.359Z,16.70
2019-04-05T12:33:13.651Z,17.00
2019-04-05T12:35:37.569Z,17.20
2019-04-05T12:38:06.936Z,17.40
2019-04-05T12:40:34.746Z,17.70
2019-04-05T12:43:02.498Z,17.90
2019-04-05T12:45:30.306Z,17.90
2019-04-05T12:47:59.193Z,18.10
2019-04-05T12:50:27.100Z,18.30
2019-04-05T12:52:56.831Z,18.50
2019-04-05T12:55:24.537Z,18.60
2019-04-05T12:57:52.293Z,18.80
2019-04-05T13:00:20.032Z,18.90
2019-04-05T13:02:50.130Z,18.90
2019-04-05T13:05:20.261Z,18.70
2019-04-05T13:07:46.899Z,18.60
2019-04-05T13:10:14.630Z,18.80
2019-04-05T13:12:42.418Z,18.90
2019-04-05T13:15:12.861Z,19.00
2019-04-05T13:17:39.702Z,19.20
2019-04-05T13:20:07.533Z,19.50
2019-04-05T13:22:35.337Z,19.50
2019-04-05T13:25:05.954Z,19.50
2019-04-05T13:27:32.815Z,19.70
2019-04-05T13:30:00.558Z,19.80
2019-04-05T13:32:28.302Z,19.90
2019-04-05T13:34:56.444Z,19.80
2019-04-05T13:37:24.311Z,19.60
2019-04-05T13:39:52.376Z,19.70
2019-04-05T13:42:20.358Z,19.60
2019-04-05T13:44:48.134Z,19.30
2019-04-05T13:47:15.882Z,19.30
2019-04-05T13:49:44.952Z,19.30
2019-04-05T13:52:12.815Z,19.00
2019-04-05T13:54:40.986Z,18.90
2019-04-05T13:57:11.395Z,18.70
2019-04-05T13:59:38.629Z,18.60
2019-04-05T14:02:06.746Z,18.90
2019-04-05T14:04:34.498Z,19.20
2019-04-05T14:07:05.373Z,19.50
2019-04-05T14:09:33.120Z,19.70
2019-04-05T14:12:01.135Z,19.90
2019-04-05T14:14:29.274Z,20.10
2019-04-05T14:16:57.019Z,20.00
2019-04-05T14:19:25.178Z,19.90
2019-04-05T14:21:53.646Z,19.90
2019-04-05T14:32:25.775Z,19.70
2019-04-05T14:34:54.751Z,19.50
2019-04-05T14:37:24.996Z,19.40
2019-04-05T14:39:52.151Z,19.30
2019-04-05T14:42:19.883Z,19.30
2019-04-05T14:44:47.697Z,19.10
2019-04-05T14:47:15.418Z,19.00
2019-04-05T14:49:43.213Z,18.90
2019-04-05T14:52:10.921Z,19.00
2019-04-05T14:54:38.668Z,19.10
2019-04-05T14:57:06.422Z,19.20
2019-04-05T14:59:34.177Z,19.40
2019-04-05T15:02:01.889Z,19.70
2019-04-05T15:04:29.613Z,20.10
2019-04-05T15:06:57.393Z,20.20
2019-04-05T15:09:25.648Z,20.40
2019-04-05T15:11:53.609Z,20.60
2019-04-05T15:14:21.369Z,20.60
2019-04-05T15:16:49.093Z,20.70
2019-04-05T15:19:16.862Z,20.60
2019-04-05T15:21:45.013Z,20.50
2019-04-05T15:24:15.982Z,20.40
2019-04-05T15:26:42.457Z,20.30
2019-04-05T15:29:10.225Z,20.20
2019-04-05T15:31:37.973Z,20.20
2019-04-05T15:34:05.821Z,20.20
2019-04-05T15:36:33.454Z,20.20
2019-04-05T15:39:01.605Z,20.20
2019-04-05T15:41:29.806Z,20.20
2019-04-05T15:43:57.525Z,20.20
2019-04-05T15:46:25.433Z,20.20
2019-04-05T15:48:53.157Z,20.10
2019-04-05T15:51:22.590Z,20.20
2019-04-05T15:53:50.643Z,20.10
2019-04-05T15:56:18.373Z,20.10
2019-04-05T15:58:46.273Z,20.00
2019-04-05T16:01:14.829Z,19.90
2019-04-05T16:03:45.365Z,19.90
2019-04-05T16:06:13.133Z,19.90
2019-04-05T16:08:41.191Z,19.90
2019-04-05T16:11:08.946Z,19.60
2019-04-05T16:13:36.712Z,19.40
2019-04-05T16:16:04.541Z,19.20
2019-04-05T16:18:32.281Z,18.80
2019-04-05T16:21:00.037Z,18.50
2019-04-05T16:23:27.764Z,18.10
2019-04-05T16:25:55.507Z,18.00
2019-04-05T16:28:23.219Z,18.00
2019-04-05T16:30:50.950Z,17.90
2019-04-05T16:33:18.869Z,17.70
2019-04-05T16:35:46.619Z,17.50
2019-04-05T16:38:17.578Z,17.50
2019-04-05T16:40:45.528Z,17.40
2019-04-05T16:43:13.396Z,17.40
2019-04-05T16:45:41.982Z,17.40
2019-04-05T16:48:12.913Z,17.40
2019-04-05T16:50:42.322Z,17.30
2019-04-05T16:53:16.296Z,17.20
2019-04-05T16:55:46.193Z,17.10
2019-04-05T16:58:13.980Z,17.00
2019-04-05T17:00:48.077Z,17.00
2019-04-05T17:03:17.576Z,16.90
2019-04-05T17:05:46.284Z,16.80
2019-04-05T17:08:14.045Z,16.80
2019-04-05T17:10:42.846Z,16.70
2019-04-05T17:13:12.681Z,16.70
2019-04-05T17:15:40.388Z,16.60
2019-04-05T17:18:08.888Z,16.60
2019-04-05T17:20:36.610Z,16.50
2019-04-05T17:23:04.634Z,16.50
2019-04-05T17:25:32.704Z,16.40
2019-04-05T17:28:01.084Z,16.40
2019-04-05T17:30:28.781Z,16.30
2019-04-05T17:32:56.549Z,16.20
2019-04-05T17:35:24.259Z,16.10
2019-04-05T17:37:52.108Z,16.00
2019-04-05T17:40:20.366Z,16.00
2019-04-05T17:42:48.570Z,15.90
2019-04-05T17:45:16.886Z,15.80
2019-04-05T17:47:44.663Z,15.80
2019-04-05T17:50:15.425Z,15.60
2019-04-05T17:52:43.159Z,15.60
2019-04-05T17:55:10.945Z,15.60
2019-04-05T17:57:38.661Z,15.50
2019-04-05T18:00:08.549Z,15.40
2019-04-05T18:02:36.397Z,15.30
2019-04-05T18:05:04.646Z,15.20
2019-04-05T18:07:32.366Z,15.10
2019-04-05T18:10:00.089Z,15.00
2019-04-05T18:12:27.842Z,15.00
2019-04-05T18:14:55.576Z,14.90
2019-04-05T18:17:23.309Z,14.90
2019-04-05T18:19:51.039Z,14.80
2019-04-05T18:22:18.769Z,14.70
2019-04-05T18:24:46.526Z,14.70
2019-04-05T18:27:14.261Z,14.70
2019-04-05T18:29:42.035Z,14.70
2019-04-05T18:32:09.791Z,14.70
2019-04-05T18:34:37.565Z,14.70
2019-04-05T18:37:05.291Z,14.60
2019-04-05T18:39:33.041Z,14.60
2019-04-05T18:42:00.849Z,14.50
2019-04-05T18:44:28.608Z,14.50
2019-04-05T18:46:56.341Z,14.50
2019-04-05T18:49:24.130Z,14.50
2019-04-05T18:51:51.855Z,14.50
2019-04-05T18:54:19.613Z,14.40
2019-04-05T18:56:50.495Z,14.40
2019-04-05T18:59:18.196Z,14.30
2019-04-05T19:01:46.033Z,14.30
2019-04-05T19:04:13.764Z,14.20
2019-04-05T19:06:41.482Z,14.20
2019-04-05T19:09:11.701Z,14.30
2019-04-05T19:11:38.870Z,14.20
2019-04-05T19:14:06.533Z,14.30
2019-04-05T19:16:34.281Z,14.20
2019-04-05T19:19:02.150Z,14.20
2019-04-05T19:21:29.905Z,14.10
2019-04-05T19:23:57.681Z,14.10
2019-04-05T19:26:25.553Z,14.10
2019-04-05T19:28:53.262Z,14.10
2019-04-05T19:48:48.156Z,13.80
2019-04-05T19:51:15.989Z,13.70
2019-04-05T19:53:43.705Z,13.70
2019-04-05T19:56:11.440Z,13.70
2019-04-05T19:58:39.290Z,13.70
2019-04-05T20:01:07.030Z,13.70
2019-04-05T20:03:34.733Z,13.60
2019-04-05T20:06:02.470Z,13.60
2019-04-05T20:08:30.217Z,13.60
2019-04-05T20:10:57.994Z,13.60
2019-04-05T20:13:25.703Z,13.60
2019-04-05T20:15:53.433Z,13.60
2019-04-05T20:18:21.162Z,13.50
2019-04-05T20:20:48.917Z,13.40
2019-04-05T20:23:16.654Z,13.40
2019-04-05T20:25:44.414Z,13.40
2019-04-05T20:28:12.121Z,13.30
2019-04-05T20:30:39.903Z,13.30
2019-04-05T20:33:07.690Z,13.20
2019-04-05T20:35:35.444Z,13.20
2019-04-05T20:38:03.192Z,13.20
2019-04-05T20:40:30.925Z,13.20
2019-04-05T20:42:59.939Z,13.20
2019-04-05T20:45:27.973Z,13.20
2019-04-05T20:47:55.712Z,13.10
2019-04-05T20:50:23.488Z,13.10
2019-04-05T20:52:51.650Z,13.10
2019-04-05T20:55:19.357Z,13.10
2019-04-05T20:57:47.131Z,13.00
2019-04-05T21:00:15.261Z,13.00
2019-04-05T21:02:43.003Z,12.90
2019-04-05T21:05:10.729Z,12.80
2019-04-05T21:07:38.455Z,12.80
2019-04-05T21:10:06.842Z,12.80
2019-04-05T21:12:34.556Z,12.70
2019-04-05T21:15:02.273Z,12.60
2019-04-05T21:17:29.989Z,12.60
2019-04-05T21:19:57.721Z,12.50
2019-04-05T21:22:25.465Z,12.50
2019-04-05T21:24:53.282Z,12.40
2019-04-05T21:27:21.042Z,12.40
2019-04-05T21:29:48.757Z,12.40
2019-04-05T21:32:16.494Z,12.40
2019-04-05T21:34:44.266Z,12.40
2019-04-05T21:37:11.989Z,12.40
2019-04-05T21:39:39.701Z,12.30
2019-04-05T21:42:07.443Z,12.30
2019-04-05T21:44:35.177Z,12.30
2019-04-05T21:47:02.906Z,12.40
2019-04-05T21:49:30.613Z,12.40
2019-04-05T21:51:58.410Z,12.50
2019-04-05T21:54:26.110Z,12.50
2019-04-05T21:56:53.827Z,12.60
2019-04-05T21:59:21.622Z,12.60
2019-04-05T22:01:49.417Z,12.70
2019-04-05T22:04:17.075Z,12.70
2019-04-05T22:06:44.761Z,12.80
2019-04-05T22:09:12.506Z,12.80
2019-04-05T22:11:40.249Z,12.90
2019-04-05T22:14:07.955Z,12.90
2019-04-05T22:16:35.682Z,12.90
2019-04-05T22:19:03.391Z,12.90
2019-04-05T22:21:31.100Z,12.90
2019-04-05T22:23:58.826Z,12.90
2019-04-05T22:26:26.565Z,12.90
2019-04-05T22:28:54.289Z,12.90
2019-04-05T22:31:22.006Z,13.00
2019-04-05T22:33:49.760Z,13.00
2019-04-05T22:36:17.547Z,13.00
2019-04-05T22:38:45.282Z,13.00
2019-04-05T22:41:12.989Z,13.10
2019-04-05T22:43:40.737Z,13.10
2019-04-05T22:46:08.456Z,13.20
2019-04-05T22:48:36.177Z,13.30
2019-04-05T22:51:03.900Z,13.30
2019-04-05T22:53:31.677Z,13.30
2019-04-05T22:55:59.385Z,13.30
2019-04-05T22:58:27.127Z,13.40
2019-04-05T23:00:54.867Z,13.40
2019-04-05T23:03:22.582Z,13.40
2019-04-05T23:05:50.313Z,13.50
2019-04-05T23:08:18.029Z,13.50
2019-04-05T23:10:45.791Z,13.50
2019-04-05T23:13:13.546Z,13.50
2019-04-05T23:15:41.273Z,13.50
2019-04-05T23:18:08.997Z,13.40
2019-04-05T23:20:36.726Z,13.40
2019-04-05T23:23:04.417Z,13.40
2019-04-05T23:25:32.156Z,13.50
2019-04-05T23:27:59.875Z,13.50
2019-04-05T23:30:28.562Z,13.50
2019-04-05T23:32:56.322Z,13.50
2019-04-05T23:35:23.998Z,13.50
2019-04-05T23:37:51.701Z,13.50
2019-04-05T23:40:19.429Z,13.60
2019-04-05T23:42:47.135Z,13.60
2019-04-05T23:45:15.963Z,13.60
2019-04-05T23:47:43.718Z,13.60
2019-04-05T23:50:11.477Z,13.60
2019-04-05T23:52:39.180Z,13.60
2019-04-05T23:55:07.049Z,13.60
2019-04-05T23:57:34.661Z,13.50
